Time;durP1;ratioP1;P1;durP2;ratioP2;P2;SDS_P1;SDS_P2;PMS_P1;PMS_P2;Temp;Humidity;BMP_temperature;BMP_pressure;BME280_temperature;BME280_humidity;BME280_pressure;Samples;Min_cycle;Max_cycle;Signal;HPM_P1;HPM_P2
2022/07/08 00:01:40;;;;;;;9.03;8.83;;;14.50;99.90;;;;;;5125209;28;20229;-84
2022/07/08 00:04:09;;;;;;;9.00;8.80;;;14.50;99.90;;;;;;5125135;28;20221;-85
2022/07/08 00:06:43;;;;;;;9.00;8.80;;;14.50;99.90;;;;;;5124070;28;20395;-84
2022/07/08 00:09:13;;;;;;;9.60;9.30;;;14.40;99.90;;;;;;5125037;28;20236;-84
2022/07/08 00:11:48;;;;;;;9.00;8.80;;;14.40;99.90;;;;;;5124997;28;20229;-84
2022/07/08 00:14:16;;;;;;;9.30;9.00;;;14.40;99.90;;;;;;5123538;28;20224;-84
2022/07/08 00:16:50;;;;;;;8.85;8.65;;;14.30;99.90;;;;;;5122831;28;20233;-84
2022/07/08 00:19:21;;;;;;;9.05;8.85;;;14.20;99.90;;;;;;5124313;28;20232;-84
2022/07/08 00:21:53;;;;;;;9.43;9.13;;;14.30;99.90;;;;;;5124239;28;20233;-83
2022/07/08 00:24:25;;;;;;;9.63;9.32;;;14.20;99.90;;;;;;5123861;28;20224;-84
2022/07/08 00:26:57;;;;;;;9.40;9.10;;;14.10;99.90;;;;;;5123509;28;20232;-84
2022/07/08 00:29:32;;;;;;;9.43;9.13;;;14.10;99.90;;;;;;5123311;28;20240;-83
2022/07/08 00:32:05;;;;;;;9.30;9.00;;;14.00;99.90;;;;;;5128086;28;20228;-86
2022/07/08 00:34:33;;;;;;;9.03;8.83;;;13.90;99.90;;;;;;5125180;28;20216;-84
2022/07/08 00:37:02;;;;;;;9.30;9.00;;;13.90;99.90;;;;;;5124854;28;20272;-84
2022/07/08 00:39:32;;;;;;;9.30;9.00;;;13.80;99.90;;;;;;5123488;28;20283;-84
2022/07/08 00:42:02;;;;;;;9.40;9.10;;;13.80;99.90;;;;;;5123634;28;20234;-84
2022/07/08 00:44:29;;;;;;;9.40;9.10;;;13.80;99.90;;;;;;5121580;28;20247;-84
2022/07/08 00:47:03;;;;;;;9.60;9.30;;;13.80;99.90;;;;;;5122956;28;20228;-84
2022/07/08 00:49:33;;;;;;;9.43;9.13;;;13.70;99.90;;;;;;5121803;28;20233;-85
2022/07/08 00:52:11;;;;;;;9.03;8.83;;;13.70;99.90;;;;;;5121904;28;20229;-84
2022/07/08 00:54:42;;;;;;;9.00;8.80;;;13.70;99.90;;;;;;5121284;28;20216;-84
2022/07/08 00:57:18;;;;;;;9.50;9.20;;;13.60;99.90;;;;;;5121204;28;20233;-84
2022/07/08 00:59:50;;;;;;;9.10;8.90;;;13.60;99.90;;;;;;5122009;28;20232;-85
2022/07/08 01:02:20;;;;;;;9.47;9.17;;;13.50;99.90;;;;;;5122880;28;20365;-84
2022/07/08 01:04:52;;;;;;;9.07;8.87;;;13.50;99.90;;;;;;5123217;28;20224;-84
2022/07/08 01:07:27;;;;;;;9.00;8.80;;;13.40;99.90;;;;;;5123673;28;20229;-85
2022/07/08 01:09:56;;;;;;;9.00;8.80;;;13.30;99.90;;;;;;5122737;28;20236;-84
2022/07/08 01:12:26;;;;;;;9.37;9.07;;;13.40;99.90;;;;;;5122185;28;20228;-84
2022/07/08 01:14:54;;;;;;;9.00;8.80;;;13.30;99.90;;;;;;5121453;28;20225;-84
2022/07/08 01:17:24;;;;;;;8.93;8.73;;;13.30;99.90;;;;;;5121306;28;20224;-85
2022/07/08 01:19:58;;;;;;;8.80;8.60;;;13.20;99.90;;;;;;5120751;28;20305;-84
2022/07/08 01:22:33;;;;;;;8.80;8.60;;;13.20;99.90;;;;;;5121242;28;20224;-84
2022/07/08 01:25:07;;;;;;;8.87;8.67;;;13.30;99.90;;;;;;5120154;28;20235;-83
2022/07/08 01:27:35;;;;;;;8.80;8.60;;;13.30;99.90;;;;;;5120369;28;20228;-84
2022/07/08 01:30:07;;;;;;;8.73;8.53;;;13.30;99.90;;;;;;5119989;28;20250;-84
2022/07/08 01:32:41;;;;;;;8.80;8.60;;;13.30;99.90;;;;;;5120683;28;20231;-84
2022/07/08 01:35:14;;;;;;;8.80;8.60;;;13.20;99.90;;;;;;5120122;28;20229;-84
2022/07/08 01:37:44;;;;;;;8.70;8.50;;;13.10;99.90;;;;;;5120851;28;20229;-84
2022/07/08 01:40:15;;;;;;;9.00;8.80;;;13.20;99.90;;;;;;5120854;28;20229;-84
2022/07/08 01:42:43;;;;;;;8.80;8.60;;;13.20;99.90;;;;;;5119369;28;20231;-84
2022/07/08 01:45:15;;;;;;;8.80;8.60;;;13.20;99.90;;;;;;5119862;28;20212;-84
2022/07/08 01:47:43;;;;;;;9.00;8.80;;;13.20;99.90;;;;;;5121162;28;20281;-84
2022/07/08 01:50:11;;;;;;;8.80;8.60;;;13.30;99.90;;;;;;5120334;28;20243;-84
2022/07/08 01:52:46;;;;;;;8.67;8.47;;;13.30;99.90;;;;;;5120123;28;20229;-84
2022/07/08 01:55:13;;;;;;;8.87;8.67;;;13.40;99.90;;;;;;5119875;28;20233;-84
2022/07/08 01:57:44;;;;;;;8.63;8.43;;;13.40;99.90;;;;;;5122164;27;20255;-83
2022/07/08 02:00:13;;;;;;;8.40;8.20;;;13.40;99.90;;;;;;5124558;28;20225;-85
2022/07/08 02:02:46;;;;;;;8.50;8.30;;;13.40;99.90;;;;;;5124321;28;20228;-84
2022/07/08 02:05:15;;;;;;;8.67;8.47;;;13.40;99.90;;;;;;5122826;28;20229;-84
2022/07/08 02:07:44;;;;;;;8.57;8.37;;;13.50;99.90;;;;;;5123262;28;20237;-85
2022/07/08 02:10:12;;;;;;;8.60;8.40;;;13.40;99.90;;;;;;5122976;28;20271;-84
2022/07/08 02:12:41;;;;;;;8.50;8.30;;;13.40;99.90;;;;;;5122920;28;20228;-84
2022/07/08 02:15:12;;;;;;;8.40;8.20;;;13.50;99.90;;;;;;5122859;28;20229;-84
2022/07/08 02:17:43;;;;;;;8.23;8.03;;;13.40;99.90;;;;;;5123625;28;20221;-84
2022/07/08 02:20:18;;;;;;;8.40;8.20;;;13.50;99.90;;;;;;5123234;28;20228;-84
2022/07/08 02:22:51;;;;;;;8.43;8.23;;;13.40;99.90;;;;;;5122862;28;20228;-84
2022/07/08 02:25:19;;;;;;;8.30;8.10;;;13.40;99.90;;;;;;5121413;28;20239;-84
2022/07/08 02:27:47;;;;;;;8.53;8.33;;;13.40;99.90;;;;;;5123174;28;20225;-84
2022/07/08 02:30:15;;;;;;;8.40;8.20;;;13.40;99.90;;;;;;5122772;28;20259;-84
2022/07/08 02:32:46;;;;;;;8.40;8.20;;;13.30;99.90;;;;;;5123078;28;20313;-84
2022/07/08 02:35:16;;;;;;;8.27;8.07;;;13.20;99.90;;;;;;5121805;28;20225;-84
2022/07/08 02:37:53;;;;;;;8.30;8.10;;;13.20;99.90;;;;;;5122299;28;20259;-84
2022/07/08 02:40:21;;;;;;;8.10;7.90;;;13.20;99.90;;;;;;5122210;28;20228;-84
2022/07/08 02:42:53;;;;;;;8.10;7.90;;;13.00;99.90;;;;;;5122960;28;20232;-84
2022/07/08 02:45:20;;;;;;;7.87;7.67;;;12.90;99.90;;;;;;5123489;28;20304;-84
2022/07/08 02:47:48;;;;;;;8.10;7.90;;;12.90;99.90;;;;;;5128615;28;20237;-84
2022/07/08 02:50:16;;;;;;;8.17;7.97;;;12.90;99.90;;;;;;5126016;28;20255;-85
2022/07/08 02:52:48;;;;;;;9.27;8.97;;;12.80;99.90;;;;;;5131154;28;20224;-83
2022/07/08 02:55:19;;;;;;;9.20;8.90;;;12.70;99.90;;;;;;5131017;28;20256;-87
2022/07/08 02:57:50;;;;;;;8.80;8.60;;;12.60;99.90;;;;;;5132520;28;20233;-86
2022/07/08 03:00:22;;;;;;;9.00;8.80;;;12.60;99.90;;;;;;5129990;28;20257;-85
2022/07/08 03:02:49;;;;;;;9.27;8.97;;;12.60;99.90;;;;;;5126468;28;20232;-84
2022/07/08 03:05:17;;;;;;;9.30;9.00;;;12.60;99.90;;;;;;5124896;28;20233;-84
2022/07/08 03:07:47;;;;;;;9.13;8.87;;;12.50;99.90;;;;;;5125651;27;20237;-84
2022/07/08 03:10:26;;;;;;;9.10;8.87;;;12.50;99.90;;;;;;5125866;28;20232;-84
2022/07/08 03:12:58;;;;;;;9.50;9.20;;;12.50;99.90;;;;;;5124771;28;20217;-84
2022/07/08 03:15:27;;;;;;;9.50;9.20;;;12.50;99.90;;;;;;5124070;28;20228;-84
2022/07/08 03:17:55;;;;;;;9.20;8.90;;;12.50;99.90;;;;;;5124438;28;20228;-84
2022/07/08 03:20:28;;;;;;;9.57;9.27;;;12.50;99.90;;;;;;5124087;28;20254;-85
2022/07/08 03:23:01;;;;;;;9.53;9.23;;;12.50;99.90;;;;;;5132287;28;20227;-84
2022/07/08 03:25:39;;;;;;;9.67;9.37;;;12.40;99.90;;;;;;5127367;28;20237;-84
2022/07/08 03:28:13;;;;;;;9.40;9.10;;;12.40;99.90;;;;;;5125843;28;20228;-84
2022/07/08 03:30:49;;;;;;;9.30;9.00;;;12.40;99.90;;;;;;5125476;28;20237;-84
2022/07/08 03:33:21;;;;;;;9.63;9.33;;;12.50;99.90;;;;;;5124947;28;20236;-84
2022/07/08 03:35:53;;;;;;;8.90;8.70;;;12.50;99.90;;;;;;5123856;28;20228;-84
2022/07/08 03:38:26;;;;;;;9.30;9.00;;;12.50;99.90;;;;;;5125030;28;20240;-84
2022/07/08 03:43:42;;;;;;;9.17;8.87;;;12.50;99.90;;;;;;5123872;28;20225;-84
2022/07/08 03:46:13;;;;;;;9.50;9.20;;;12.50;99.90;;;;;;5123535;28;20239;-84
2022/07/08 03:48:55;;;;;;;9.53;9.23;;;12.60;99.90;;;;;;5123801;28;20258;-85
2022/07/08 03:51:23;;;;;;;9.47;9.17;;;12.50;99.90;;;;;;5123552;28;20224;-84
2022/07/08 03:53:56;;;;;;;9.20;8.90;;;12.50;99.90;;;;;;5123816;28;20225;-85
2022/07/08 03:56:35;;;;;;;9.37;9.07;;;12.40;99.90;;;;;;5122837;28;20228;-85
2022/07/08 03:59:10;;;;;;;9.43;9.13;;;12.50;99.90;;;;;;5123907;28;20225;-85
2022/07/08 04:01:42;;;;;;;9.07;8.77;;;12.60;99.90;;;;;;5123143;28;20228;-86
2022/07/08 04:04:20;;;;;;;9.40;9.10;;;12.60;99.90;;;;;;5123636;28;20217;-85
2022/07/08 04:06:57;;;;;;;9.23;8.93;;;12.70;99.90;;;;;;5123286;28;20236;-85
2022/07/08 04:09:36;;;;;;;9.50;9.20;;;12.70;99.90;;;;;;5123763;28;20287;-85
2022/07/08 04:12:18;;;;;;;9.60;9.30;;;12.80;99.90;;;;;;5122901;28;20282;-85
2022/07/08 04:14:54;;;;;;;9.47;9.17;;;12.80;99.90;;;;;;5122940;28;20221;-85
2022/07/08 04:17:24;;;;;;;9.33;9.03;;;12.80;99.90;;;;;;5122665;28;20221;-85
2022/07/08 04:20:01;;;;;;;9.30;9.00;;;12.80;99.90;;;;;;5121680;28;20267;-85
2022/07/08 04:22:34;;;;;;;9.57;9.27;;;12.90;99.90;;;;;;5123029;28;20238;-85
2022/07/08 04:25:32;;;;;;;9.50;9.20;;;13.00;99.90;;;;;;5122509;28;20233;-85
2022/07/08 04:28:07;;;;;;;9.43;9.13;;;12.90;99.90;;;;;;5122698;28;20286;-85
2022/07/08 04:30:46;;;;;;;9.60;9.30;;;12.90;99.90;;;;;;5121707;28;20262;-85
2022/07/08 04:33:16;;;;;;;9.40;9.10;;;12.90;99.90;;;;;;5122072;28;20233;-85
2022/07/08 04:35:46;;;;;;;9.50;9.20;;;13.00;99.90;;;;;;5121068;28;20240;-85
2022/07/08 04:38:23;;;;;;;9.40;9.10;;;13.00;99.90;;;;;;5121069;28;20208;-85
2022/07/08 04:40:53;;;;;;;9.60;9.30;;;13.00;99.90;;;;;;5122074;28;20232;-85
2022/07/08 04:43:23;;;;;;;9.40;9.10;;;13.10;99.90;;;;;;5121336;28;20711;-85
2022/07/08 04:45:53;;;;;;;9.60;9.30;;;13.10;99.90;;;;;;5120984;28;20237;-85
2022/07/08 04:48:23;;;;;;;9.20;8.90;;;13.10;99.90;;;;;;5121049;28;20276;-86
2022/07/08 04:50:56;;;;;;;8.90;8.70;;;13.20;99.90;;;;;;5121201;28;20294;-85
2022/07/08 04:53:27;;;;;;;9.23;8.93;;;13.30;99.90;;;;;;5121882;28;20228;-85
2022/07/08 04:56:05;;;;;;;9.70;9.40;;;13.30;99.90;;;;;;5121449;28;20220;-85
2022/07/08 04:59:06;;;;;;;9.60;9.30;;;13.40;99.90;;;;;;5121904;28;20224;-85
2022/07/08 05:01:37;;;;;;;9.60;9.30;;;13.50;99.90;;;;;;5127680;28;20256;-86
2022/07/08 05:04:17;;;;;;;9.17;8.87;;;13.50;99.90;;;;;;5123947;28;20323;-86
2022/07/08 05:06:45;;;;;;;9.60;9.30;;;13.50;99.90;;;;;;5118722;28;20264;-85
2022/07/08 05:09:22;;;;;;;9.70;9.40;;;13.60;99.90;;;;;;5120965;28;20232;-85
2022/07/08 05:12:12;;;;;;;9.80;9.50;;;13.70;99.90;;;;;;5122157;28;20254;-85
2022/07/08 05:14:42;;;;;;;9.80;9.50;;;13.70;99.90;;;;;;5122142;28;20252;-85
2022/07/08 05:17:13;;;;;;;9.70;9.40;;;13.90;99.90;;;;;;5122363;28;20315;-86
2022/07/08 05:19:47;;;;;;;9.50;9.20;;;13.90;99.90;;;;;;5121346;28;20225;-86
2022/07/08 05:22:15;;;;;;;9.50;9.20;;;14.00;99.90;;;;;;5122532;28;20232;-85
2022/07/08 05:24:43;;;;;;;9.60;9.30;;;14.00;99.90;;;;;;5121100;28;20236;-85
2022/07/08 05:27:11;;;;;;;9.50;9.20;;;14.00;99.90;;;;;;5148991;22;20233;-87
2022/07/08 05:29:40;;;;;;;9.60;9.30;;;14.00;99.90;;;;;;5097820;28;20332;-86
2022/07/08 05:32:08;;;;;;;10.07;9.77;;;14.10;99.90;;;;;;5100678;28;20244;-87
2022/07/08 05:34:38;;;;;;;9.80;9.50;;;14.00;99.90;;;;;;5100944;28;20252;-86
2022/07/08 05:37:06;;;;;;;9.80;9.50;;;14.00;99.90;;;;;;5116101;28;20232;-86
2022/07/08 05:39:34;;;;;;;9.63;9.33;;;14.00;99.90;;;;;;5122285;28;20224;-87
2022/07/08 05:42:02;;;;;;;9.50;9.20;;;14.10;99.90;;;;;;5122770;28;20224;-86
2022/07/08 05:44:30;;;;;;;9.43;9.13;;;14.20;99.90;;;;;;5143353;27;20217;-84
2022/07/08 05:46:59;;;;;;;9.30;9.00;;;14.20;99.90;;;;;;5136353;27;20262;-86
2022/07/08 05:49:27;;;;;;;9.30;9.00;;;14.30;99.90;;;;;;5124403;28;20233;-87
2022/07/08 05:51:55;;;;;;;9.40;9.10;;;14.30;99.90;;;;;;5123688;28;20239;-86
2022/07/08 05:54:23;;;;;;;9.30;9.00;;;14.30;99.90;;;;;;5124710;28;20264;-86
2022/07/08 05:56:51;;;;;;;9.35;9.05;;;14.30;99.90;;;;;;5125043;28;20264;-87
2022/07/08 05:59:19;;;;;;;9.35;9.05;;;14.40;99.90;;;;;;5139147;28;20251;-87
2022/07/08 06:01:47;;;;;;;9.70;9.40;;;14.40;99.90;;;;;;5126398;28;20232;-87
2022/07/08 06:04:16;;;;;;;9.75;9.45;;;14.50;99.90;;;;;;5143064;27;20226;-86
2022/07/08 06:06:44;;;;;;;9.70;9.40;;;14.60;99.90;;;;;;5143338;27;20234;-86
2022/07/08 06:09:12;;;;;;;9.90;9.60;;;14.50;99.90;;;;;;5143314;27;20230;-85
2022/07/08 06:11:46;;;;;;;9.73;9.43;;;14.40;99.90;;;;;;5143526;27;20213;-86
2022/07/08 06:14:13;;;;;;;9.93;9.63;;;14.50;99.90;;;;;;5143610;27;20229;-85
2022/07/08 06:16:41;;;;;;;9.98;9.68;;;14.60;99.90;;;;;;5142771;27;20208;-85
2022/07/08 06:19:11;;;;;;;9.70;9.40;;;14.60;99.90;;;;;;5141221;27;20239;-88
2022/07/08 06:21:40;;;;;;;9.63;9.32;;;14.60;99.90;;;;;;5135850;28;20251;-87
2022/07/08 06:24:11;;;;;;;9.77;9.48;;;14.70;99.90;;;;;;5139159;27;20216;-86
2022/07/08 06:26:39;;;;;;;9.80;9.50;;;14.70;99.90;;;;;;5142684;27;20229;-85
2022/07/08 06:29:07;;;;;;;9.73;9.43;;;14.80;99.90;;;;;;5143341;27;20213;-85
2022/07/08 06:31:36;;;;;;;9.68;9.38;;;14.80;99.90;;;;;;5143151;27;20251;-85
2022/07/08 06:34:04;;;;;;;9.75;9.45;;;14.80;99.90;;;;;;5143294;27;20225;-86
2022/07/08 06:36:32;;;;;;;9.50;9.20;;;14.90;99.90;;;;;;5142347;27;20228;-85
2022/07/08 06:39:02;;;;;;;9.80;9.50;;;14.90;99.90;;;;;;5143244;27;20236;-85
2022/07/08 06:41:33;;;;;;;9.63;9.32;;;14.90;99.90;;;;;;5143141;27;20211;-85
2022/07/08 06:44:00;;;;;;;9.98;9.68;;;15.00;99.90;;;;;;5142146;27;20212;-85
2022/07/08 06:46:28;;;;;;;9.80;9.50;;;15.10;99.90;;;;;;5142663;27;20225;-85
2022/07/08 06:48:56;;;;;;;9.65;9.35;;;15.10;99.90;;;;;;5142551;27;20229;-85
2022/07/08 06:51:24;;;;;;;9.50;9.20;;;15.10;99.90;;;;;;5142861;27;20250;-84
2022/07/08 06:56:38;;;;;;;9.70;9.40;;;15.30;99.90;;;;;;5142889;27;20224;-85
2022/07/08 06:59:06;;;;;;;9.00;8.80;;;15.30;99.90;;;;;;5140391;27;20204;-88
2022/07/08 07:01:34;;;;;;;9.18;8.88;;;15.30;99.90;;;;;;5142331;27;20232;-85
2022/07/08 07:04:05;;;;;;;9.50;9.20;;;15.20;99.90;;;;;;5142509;27;20245;-85
2022/07/08 07:06:33;;;;;;;9.15;8.90;;;15.10;99.90;;;;;;5141764;27;20233;-85
2022/07/08 07:09:00;;;;;;;9.02;8.82;;;15.20;99.90;;;;;;5142456;27;20213;-85
2022/07/08 07:11:28;;;;;;;9.20;8.90;;;15.20;99.90;;;;;;5142154;27;20223;-86
2022/07/08 07:13:57;;;;;;;9.13;8.82;;;15.20;99.90;;;;;;5141592;27;20239;-84
2022/07/08 07:16:25;;;;;;;9.45;9.15;;;15.10;99.90;;;;;;5141932;27;20225;-86
2022/07/08 07:18:53;;;;;;;8.95;8.75;;;15.20;99.90;;;;;;5130339;28;20221;-87
2022/07/08 07:21:21;;;;;;;8.90;8.70;;;15.40;99.90;;;;;;5138337;27;20217;-86
2022/07/08 07:23:49;;;;;;;9.05;8.82;;;15.50;99.90;;;;;;5139566;27;20239;-85
2022/07/08 07:26:17;;;;;;;9.80;9.50;;;15.50;99.90;;;;;;5141123;27;20236;-86
2022/07/08 07:28:44;;;;;;;9.60;9.30;;;15.60;99.90;;;;;;5141234;27;20201;-86
2022/07/08 07:31:14;;;;;;;9.60;9.30;;;15.60;99.90;;;;;;5141967;27;20220;-86
2022/07/08 07:33:41;;;;;;;9.77;9.48;;;15.60;99.90;;;;;;5142214;27;20244;-85
2022/07/08 07:36:12;;;;;;;9.60;9.30;;;15.60;99.90;;;;;;5140696;27;20235;-86
2022/07/08 07:38:43;;;;;;;9.85;9.55;;;15.60;99.90;;;;;;5141540;27;20243;-86
2022/07/08 07:41:11;;;;;;;9.98;9.68;;;15.70;99.90;;;;;;5139470;27;20220;-85
2022/07/08 07:43:38;;;;;;;9.80;9.50;;;15.70;99.90;;;;;;5141403;27;20217;-85
2022/07/08 07:46:07;;;;;;;9.93;9.63;;;15.80;99.90;;;;;;5135351;27;20216;-86
2022/07/08 07:48:37;;;;;;;9.95;9.65;;;15.90;99.90;;;;;;5140990;27;20205;-86
2022/07/08 07:51:05;;;;;;;10.02;9.73;;;16.20;99.90;;;;;;5141464;27;20212;-86
2022/07/08 07:53:33;;;;;;;9.68;9.38;;;16.20;99.90;;;;;;5141835;27;20212;-85
2022/07/08 07:56:00;;;;;;;10.15;9.85;;;16.30;99.90;;;;;;5141269;27;20282;-85
2022/07/08 07:58:28;;;;;;;9.85;9.55;;;16.40;99.90;;;;;;5141526;27;20231;-85
2022/07/08 08:00:56;;;;;;;9.80;9.50;;;16.50;99.90;;;;;;5141066;27;20229;-85
2022/07/08 08:03:26;;;;;;;9.70;9.40;;;16.40;99.90;;;;;;5141452;27;20285;-84
2022/07/08 08:05:55;;;;;;;9.95;9.65;;;16.60;99.90;;;;;;5140649;27;20221;-86
2022/07/08 08:08:24;;;;;;;10.25;9.95;;;16.60;99.90;;;;;;5141247;27;20239;-84
2022/07/08 08:10:52;;;;;;;9.82;9.52;;;16.70;99.90;;;;;;5141349;27;20246;-84
2022/07/08 08:13:20;;;;;;;9.90;9.60;;;16.80;99.90;;;;;;5141098;27;20235;-84
2022/07/08 08:15:48;;;;;;;10.07;9.77;;;16.80;99.90;;;;;;5134220;27;20229;-87
2022/07/08 08:18:17;;;;;;;10.10;9.80;;;17.00;99.90;;;;;;5124434;28;20247;-87
2022/07/08 08:20:46;;;;;;;9.98;9.68;;;17.30;99.90;;;;;;5124674;28;20228;-86
2022/07/08 08:23:19;;;;;;;10.13;9.82;;;17.40;99.90;;;;;;5121787;28;20236;-86
2022/07/08 08:25:46;;;;;;;10.10;9.80;;;17.40;99.90;;;;;;5121128;28;20243;-86
2022/07/08 08:28:14;;;;;;;10.10;9.80;;;17.50;99.90;;;;;;5135358;27;20208;-85
2022/07/08 08:30:42;;;;;;;10.00;9.70;;;17.40;99.90;;;;;;5141110;27;20223;-84
2022/07/08 08:33:10;;;;;;;10.20;9.90;;;17.30;99.90;;;;;;5140842;27;20238;-86
2022/07/08 08:35:38;;;;;;;10.15;9.85;;;17.30;99.90;;;;;;5140337;27;20239;-85
2022/07/08 08:38:08;;;;;;;10.40;10.10;;;17.50;99.90;;;;;;5130182;27;20229;-87
2022/07/08 08:40:41;;;;;;;10.63;10.32;;;17.80;99.90;;;;;;5124766;28;20285;-87
2022/07/08 08:43:11;;;;;;;10.05;9.75;;;18.10;99.90;;;;;;5122133;28;20255;-86
2022/07/08 08:45:39;;;;;;;10.10;9.80;;;18.40;99.90;;;;;;5120753;28;20440;-87
2022/07/08 08:48:09;;;;;;;10.30;10.00;;;18.70;99.90;;;;;;5120121;28;20282;-87
2022/07/08 08:50:57;;;;;;;10.05;9.75;;;18.90;99.90;;;;;;5120291;28;20264;-87
2022/07/08 08:53:28;;;;;;;10.20;9.90;;;19.00;99.90;;;;;;5120009;28;20224;-87
2022/07/08 08:55:59;;;;;;;9.88;9.57;;;18.90;99.90;;;;;;5121438;28;20236;-85
2022/07/08 08:58:28;;;;;;;10.35;10.05;;;18.60;99.90;;;;;;5121072;28;20221;-85
2022/07/08 09:00:55;;;;;;;10.10;9.80;;;18.40;99.90;;;;;;5120277;28;20224;-85
2022/07/08 09:03:23;;;;;;;10.25;9.95;;;18.20;99.90;;;;;;5138026;27;20239;-83
2022/07/08 09:05:55;;;;;;;10.45;10.15;;;18.20;99.90;;;;;;5138003;27;20227;-86
2022/07/08 09:08:28;;;;;;;10.52;10.23;;;18.20;99.90;;;;;;5125192;28;20280;-85
2022/07/08 09:10:58;;;;;;;10.70;10.40;;;18.60;99.90;;;;;;5118570;28;20309;-87
2022/07/08 09:13:26;;;;;;;10.60;10.30;;;18.90;99.90;;;;;;5117971;28;20260;-86
2022/07/08 09:15:59;;;;;;;10.60;10.30;;;19.40;99.90;;;;;;5117415;28;20247;-87
2022/07/08 09:18:36;;;;;;;10.32;10.02;;;19.80;99.90;;;;;;5118576;28;20225;-86
2022/07/08 09:21:07;;;;;;;10.40;10.10;;;19.90;99.90;;;;;;5117665;28;20250;-86
2022/07/08 09:23:38;;;;;;;10.57;10.27;;;19.80;99.90;;;;;;5117798;28;20205;-86
2022/07/08 09:26:10;;;;;;;10.43;10.13;;;19.80;99.90;;;;;;5117333;28;20235;-86
2022/07/08 09:28:41;;;;;;;10.20;9.90;;;19.80;99.90;;;;;;5117685;28;20216;-86
2022/07/08 09:31:12;;;;;;;10.80;10.50;;;20.00;99.90;;;;;;5120314;28;20252;-86
2022/07/08 09:33:41;;;;;;;10.63;10.32;;;20.30;99.90;;;;;;5123709;28;20228;-86
2022/07/08 09:36:10;;;;;;;10.57;10.27;;;20.60;99.90;;;;;;5122300;28;20746;-85
2022/07/08 09:38:40;;;;;;;10.20;9.90;;;20.50;99.90;;;;;;5140205;27;20193;-84
2022/07/08 09:41:12;;;;;;;10.50;10.20;;;20.30;99.90;;;;;;5140035;27;20234;-83
2022/07/08 09:43:46;;;;;;;10.50;10.20;;;19.90;99.90;;;;;;5140180;27;20212;-84
2022/07/08 09:46:14;;;;;;;10.57;10.27;;;19.50;99.90;;;;;;5139937;27;20301;-85
2022/07/08 09:48:43;;;;;;;10.40;10.10;;;19.30;99.90;;;;;;5139859;27;20197;-85
2022/07/08 09:51:11;;;;;;;10.48;10.18;;;19.60;99.90;;;;;;5140022;27;20209;-85
2022/07/08 09:53:44;;;;;;;10.68;10.38;;;20.10;99.90;;;;;;5139996;27;20213;-85
2022/07/08 09:56:13;;;;;;;10.32;10.02;;;20.60;99.90;;;;;;5139120;27;20224;-85
2022/07/08 09:58:41;;;;;;;10.63;10.32;;;21.20;99.90;;;;;;5134997;28;20225;-85
2022/07/08 10:01:09;;;;;;;10.52;10.23;;;21.40;99.90;;;;;;5123072;28;20229;-85
2022/07/08 10:03:37;;;;;;;10.80;10.50;;;21.30;99.90;;;;;;5120623;28;20228;-86
2022/07/08 10:06:06;;;;;;;10.65;10.35;;;21.00;99.90;;;;;;5120465;27;20237;-87
2022/07/08 10:08:35;;;;;;;10.80;10.50;;;21.20;99.90;;;;;;5134084;27;20272;-85
2022/07/08 10:11:08;;;;;;;10.77;10.48;;;21.30;99.90;;;;;;5136292;27;20232;-86
2022/07/08 10:13:42;;;;;;;10.90;10.60;;;21.20;99.90;;;;;;5120197;28;20267;-86
2022/07/08 10:16:11;;;;;;;11.07;10.77;;;21.30;99.90;;;;;;5117191;28;20245;-87
2022/07/08 10:18:44;;;;;;;10.80;10.50;;;21.70;99.90;;;;;;5119276;27;20302;-86
2022/07/08 10:21:19;;;;;;;10.88;10.57;;;22.00;99.90;;;;;;5121690;28;20229;-87
2022/07/08 10:23:51;;;;;;;11.10;10.80;;;22.30;99.90;;;;;;5120828;28;20229;-87
2022/07/08 10:26:23;;;;;;;10.75;10.45;;;22.60;99.90;;;;;;5118705;28;20239;-86
2022/07/08 10:29:06;;;;;;;10.82;10.52;;;22.80;99.90;;;;;;5120481;28;20236;-87
2022/07/08 10:31:44;;;;;;;10.80;10.50;;;22.70;99.90;;;;;;5120047;28;20245;-87
2022/07/08 10:34:21;;;;;;;10.85;10.55;;;23.00;99.90;;;;;;5119372;28;20618;-87
2022/07/08 10:36:51;;;;;;;10.43;10.13;;;23.30;99.90;;;;;;5118699;28;20228;-87
2022/07/08 10:39:29;;;;;;;10.20;9.90;;;23.00;99.90;;;;;;5120019;28;20224;-86
2022/07/08 10:41:59;;;;;;;10.30;10.00;;;21.90;99.90;;;;;;5119884;28;20233;-87
2022/07/08 10:44:52;;;;;;;10.60;10.30;;;21.50;99.90;;;;;;5119929;28;20228;-87
2022/07/08 10:47:28;;;;;;;10.10;9.80;;;21.20;99.90;;;;;;5119635;28;20229;-87
2022/07/08 10:50:06;;;;;;;10.40;10.10;;;21.10;99.90;;;;;;5120278;28;20243;-86
2022/07/08 10:52:39;;;;;;;10.60;10.30;;;21.00;99.90;;;;;;5118713;28;20307;-87
2022/07/08 10:55:14;;;;;;;10.48;10.18;;;20.60;99.90;;;;;;5120038;28;20224;-87
2022/07/08 10:57:56;;;;;;;10.88;10.57;;;20.70;99.90;;;;;;5119383;28;20231;-87
2022/07/08 11:00:26;;;;;;;10.70;10.40;;;21.10;99.90;;;;;;5120519;28;20221;-87
2022/07/08 11:02:54;;;;;;;10.65;10.35;;;21.80;99.90;;;;;;5121629;28;20295;-88
2022/07/08 11:05:39;;;;;;;10.70;10.40;;;22.60;99.90;;;;;;5119795;28;20229;-87
2022/07/08 11:08:25;;;;;;;10.48;10.18;;;23.20;99.90;;;;;;5120339;28;20735;-87
2022/07/08 11:11:05;;;;;;;10.50;10.20;;;23.40;99.90;;;;;;5119814;28;20231;-88
2022/07/08 11:13:36;;;;;;;10.55;10.25;;;23.80;99.90;;;;;;5119441;28;20228;-87
2022/07/08 11:16:06;;;;;;;10.80;10.50;;;24.40;99.90;;;;;;5120646;28;20237;-87
2022/07/08 11:18:34;;;;;;;10.90;10.60;;;24.80;99.90;;;;;;5122047;28;20245;-87
2022/07/08 11:21:03;;;;;;;10.80;10.50;;;24.30;99.90;;;;;;5140364;27;20220;-86
2022/07/08 11:23:32;;;;;;;10.68;10.38;;;24.20;99.90;;;;;;5126364;27;20248;-87
2022/07/08 11:26:01;;;;;;;10.35;10.05;;;24.50;99.90;;;;;;5122737;28;20270;-87
2022/07/08 11:28:54;;;;;;;10.40;10.10;;;24.50;99.90;;;;;;5118740;22;20226;-85
2022/07/08 11:31:47;;;;;;;10.77;10.48;;;24.50;99.90;;;;;;5104979;28;20229;-85
2022/07/08 11:35:01;;;;;;;10.30;10.00;;;24.60;99.90;;;;;;5104502;28;20260;-86
2022/07/08 11:37:35;;;;;;;10.27;9.98;;;24.40;99.90;;;;;;5113459;28;20274;-86
2022/07/08 11:40:16;;;;;;;10.30;10.00;;;23.50;99.90;;;;;;5123423;28;20244;-85
2022/07/08 11:42:51;;;;;;;10.68;10.38;;;23.30;99.90;;;;;;5123800;28;20224;-86
2022/07/08 11:45:32;;;;;;;10.20;9.90;;;23.30;99.90;;;;;;5127826;28;20240;-86
2022/07/08 11:48:22;;;;;;;10.13;9.82;;;22.70;99.90;;;;;;5132324;28;20232;-85
2022/07/08 11:51:42;;;;;;;10.80;10.50;;;22.40;99.90;;;;;;5126265;28;20307;-85
2022/07/08 11:54:45;;;;;;;10.63;10.32;;;23.00;99.90;;;;;;5121542;28;20716;-86
2022/07/08 12:00:55;;;;;;;;;;;;;;;;;;;;;
2022/07/08 12:08:00;;;;;;;;;;;;;;;;;;;;;
2022/07/08 12:11:46;;;;;;;;;;;;;;;;;;;;;
2022/07/08 12:17:56;;;;;;;10.70;10.40;;;23.50;99.90;;;;;;5110482;27;20228;-86
2022/07/08 12:20:53;;;;;;;10.73;10.43;;;23.60;99.90;;;;;;5123678;28;20221;-85
2022/07/08 12:24:18;;;;;;;10.65;10.35;;;23.90;99.90;;;;;;5124864;28;20221;-86
2022/07/08 12:27:28;;;;;;;10.88;10.57;;;24.70;99.90;;;;;;5124221;28;20236;-86
2022/07/08 12:30:29;;;;;;;10.85;10.55;;;25.20;99.90;;;;;;5119568;28;20236;-86
2022/07/08 12:34:18;;;;;;;10.60;10.30;;;25.20;99.90;;;;;;5123957;28;20238;-86
2022/07/08 12:55:54;;;;;;;10.50;10.20;;;24.30;99.90;;;;;;5119041;28;20233;-85
2022/07/08 12:59:23;;;;;;;10.63;10.32;;;24.40;99.90;;;;;;5124875;28;20232;-86
2022/07/08 13:06:33;;;;;;;;;;;;;;;;;;;;;
2022/07/08 13:22:17;;;;;;;11.20;10.90;;;25.60;99.90;;;;;;5119905;28;20228;-86
2022/07/08 13:25:16;;;;;;;11.15;10.85;;;26.30;99.90;;;;;;5122508;28;20246;-86
2022/07/08 13:31:58;;;;;;;11.15;10.85;;;25.50;99.90;;;;;;5117124;28;20241;-86
2022/07/08 13:35:25;;;;;;;11.80;11.40;;;24.90;99.90;;;;;;5125969;28;20232;-86
2022/07/08 13:45:03;;;;;;;;;;;;;;;;;;;;;
2022/07/08 13:55:00;;;;;;;11.40;11.10;;;28.40;99.90;;;;;;5122459;28;20229;-87
2022/07/08 13:58:18;;;;;;;11.85;11.45;;;28.60;99.90;;;;;;5123940;28;20232;-87
2022/07/08 14:12:10;;;;;;;11.80;11.40;;;27.40;99.90;;;;;;5118855;28;20229;-87
2022/07/08 14:16:07;;;;;;;;;;;;;;;;;;;;;
2022/07/08 14:22:31;;;;;;;11.10;10.80;;;27.50;99.90;;;;;;5119199;28;20216;-86
2022/07/08 14:25:10;;;;;;;11.10;10.80;;;28.00;99.90;;;;;;5126965;28;20260;-86
2022/07/08 14:28:00;;;;;;;10.60;10.30;;;27.80;99.90;;;;;;5129657;28;20228;-86
2022/07/08 14:30:36;;;;;;;10.57;10.27;;;28.20;99.90;;;;;;5132064;28;20240;-86
2022/07/08 14:33:21;;;;;;;11.02;10.73;;;28.20;99.90;;;;;;5132384;28;20232;-86
2022/07/08 14:35:54;;;;;;;11.00;10.70;;;28.10;99.90;;;;;;5129196;28;20232;-86
2022/07/08 14:38:37;;;;;;;11.10;10.80;;;28.30;99.90;;;;;;5131734;28;20256;-86
2022/07/08 14:41:06;;;;;;;11.05;10.75;;;28.20;99.90;;;;;;5128788;28;20212;-86
2022/07/08 14:44:01;;;;;;;10.93;10.63;;;28.50;99.90;;;;;;5123880;28;20225;-87
2022/07/08 14:46:34;;;;;;;11.02;10.73;;;28.70;99.90;;;;;;5123457;28;20266;-86
2022/07/08 14:49:24;;;;;;;11.07;10.77;;;29.00;99.90;;;;;;5124593;28;20228;-85
2022/07/08 14:52:09;;;;;;;10.90;10.60;;;29.10;99.90;;;;;;5123737;28;20225;-85